Time;durP1;ratioP1;P1;durP2;ratioP2;P2;SDS_P1;SDS_P2;PMS_P1;PMS_P2;Temp;Humidity;BMP_temperature;BMP_pressure;BME280_temperature;BME280_humidity;BME280_pressure;Samples;Min_cycle;Max_cycle;Signal;HPM_P1;HPM_P2
2022/04/30 00:00:35;;;;;;;2.55;1.90;;;;;;;;;;2576975;23;20415;-86
2022/04/30 00:01:38;;;;;;;2.28;1.60;;;;;;;;;;2572646;23;20031;-86
2022/04/30 00:02:45;;;;;;;2.15;1.40;;;;;;;;;;2560078;23;20061;-86
2022/04/30 00:03:48;;;;;;;3.13;1.83;;;;;;;;;;2573550;23;20011;-87
2022/04/30 00:04:53;;;;;;;2.42;1.75;;;;;;;;;;2569126;23;20376;-87
2022/04/30 00:05:57;;;;;;;1.90;1.67;;;;;;;;;;2573538;23;20106;-86
2022/04/30 00:06:57;;;;;;;2.70;1.77;;;;;;;;;;2573695;23;20016;-87
2022/04/30 00:07:59;;;;;;;2.78;1.75;;;;;;;;;;2573935;23;20000;-87
2022/04/30 00:08:59;;;;;;;5.68;1.60;;;;;;;;;;2573815;23;20424;-86
2022/04/30 00:10:05;;;;;;;2.40;1.75;;;;;;;;;;2573784;23;19992;-87
2022/04/30 00:11:08;;;;;;;2.92;1.48;;;;;;;;;;2573837;23;20388;-87
2022/04/30 00:12:27;;;;;;;3.03;1.60;;;;;;;;;;2568639;23;20008;-87
2022/04/30 00:13:27;;;;;;;2.80;1.30;;;;;;;;;;2573792;23;19996;-86
2022/04/30 00:14:29;;;;;;;1.83;1.60;;;;;;;;;;2568741;23;20494;-87
2022/04/30 00:15:29;;;;;;;2.15;1.42;;;;;;;;;;2556783;23;19993;-86
2022/04/30 00:16:35;;;;;;;1.67;1.50;;;;;;;;;;2573085;23;20449;-87
2022/04/30 00:17:38;;;;;;;6.47;1.70;;;;;;;;;;2573880;23;20496;-87
2022/04/30 00:18:39;;;;;;;3.13;1.58;;;;;;;;;;2573676;23;20031;-86
2022/04/30 00:19:40;;;;;;;3.17;1.73;;;;;;;;;;2573588;23;20000;-87
2022/04/30 00:20:45;;;;;;;1.55;1.33;;;;;;;;;;2573649;23;19989;-87
2022/04/30 00:21:51;;;;;;;2.42;1.80;;;;;;;;;;2573869;23;19996;-86
2022/04/30 00:22:52;;;;;;;2.15;1.65;;;;;;;;;;2573679;23;20004;-87
2022/04/30 00:23:53;;;;;;;3.03;1.73;;;;;;;;;;2573966;23;20367;-85
2022/04/30 00:24:55;;;;;;;3.22;2.20;;;;;;;;;;2573071;23;20111;-86
2022/04/30 00:25:56;;;;;;;2.13;1.80;;;;;;;;;;2573079;23;20188;-85
2022/04/30 00:27:01;;;;;;;4.22;1.98;;;;;;;;;;2581288;23;20075;-87
2022/04/30 00:28:01;;;;;;;2.03;1.48;;;;;;;;;;2585081;23;19996;-86
2022/04/30 00:29:04;;;;;;;2.75;1.90;;;;;;;;;;2556086;23;20387;-87
2022/04/30 00:30:06;;;;;;;5.55;2.00;;;;;;;;;;2560946;23;20064;-87
2022/04/30 00:31:07;;;;;;;2.60;1.50;;;;;;;;;;2556566;23;20021;-87
2022/04/30 00:32:07;;;;;;;2.60;1.30;;;;;;;;;;2544362;23;20056;-86
2022/04/30 00:33:09;;;;;;;3.20;2.08;;;;;;;;;;2560947;23;20004;-86
2022/04/30 00:34:17;;;;;;;2.97;1.65;;;;;;;;;;2573548;23;20007;-85
2022/04/30 00:35:20;;;;;;;2.67;1.35;;;;;;;;;;2573728;23;19996;-86
2022/04/30 00:36:22;;;;;;;2.35;1.67;;;;;;;;;;2568786;23;20347;-86
2022/04/30 00:37:24;;;;;;;2.78;2.00;;;;;;;;;;2556685;23;20080;-86
2022/04/30 00:38:29;;;;;;;5.03;2.00;;;;;;;;;;2557111;23;19997;-86
2022/04/30 00:39:34;;;;;;;2.97;1.88;;;;;;;;;;2573499;23;20395;-87
2022/04/30 00:40:35;;;;;;;3.00;2.00;;;;;;;;;;2557628;23;19989;-87
2022/04/30 00:41:42;;;;;;;3.55;1.80;;;;;;;;;;2569126;23;20063;-88
2022/04/30 00:42:51;;;;;;;2.63;2.05;;;;;;;;;;2581557;23;19996;-89
2022/04/30 00:44:01;;;;;;;2.10;1.80;;;;;;;;;;2584604;23;20018;-87
2022/04/30 00:45:07;;;;;;;2.75;1.85;;;;;;;;;;2573994;23;20005;-87
2022/04/30 00:46:44;;;;;;;2.88;1.85;;;;;;;;;;2573756;23;20072;-87
2022/04/30 00:47:47;;;;;;;3.20;1.88;;;;;;;;;;2569637;23;19992;-87
2022/04/30 00:48:48;;;;;;;3.00;1.80;;;;;;;;;;2573686;23;20014;-87
2022/04/30 00:49:48;;;;;;;2.58;1.90;;;;;;;;;;2573735;23;20011;-87
2022/04/30 00:50:50;;;;;;;2.85;2.15;;;;;;;;;;2573700;23;20312;-87
2022/04/30 00:51:54;;;;;;;3.67;1.70;;;;;;;;;;2573802;23;20071;-87
2022/04/30 00:52:57;;;;;;;4.07;1.60;;;;;;;;;;2581437;23;19993;-87
2022/04/30 00:53:59;;;;;;;1.98;1.60;;;;;;;;;;2581119;23;19996;-85
2022/04/30 00:55:06;;;;;;;3.20;2.08;;;;;;;;;;2585480;23;19996;-86
2022/04/30 00:56:12;;;;;;;4.97;2.10;;;;;;;;;;2568940;23;20339;-86
2022/04/30 00:57:17;;;;;;;3.83;1.80;;;;;;;;;;2573330;23;19996;-86
2022/04/30 00:58:21;;;;;;;4.82;2.05;;;;;;;;;;2573714;23;20079;-86
2022/04/30 00:59:23;;;;;;;2.28;1.73;;;;;;;;;;2573677;23;20020;-87
2022/04/30 01:00:26;;;;;;;3.40;1.90;;;;;;;;;;2573836;23;20468;-85
2022/04/30 01:01:33;;;;;;;3.72;1.73;;;;;;;;;;2573840;23;20459;-85
2022/04/30 01:02:38;;;;;;;2.55;1.67;;;;;;;;;;2568716;23;20386;-86
2022/04/30 01:03:39;;;;;;;2.13;1.65;;;;;;;;;;2573268;23;20001;-85
2022/04/30 01:04:42;;;;;;;3.67;2.08;;;;;;;;;;2581241;23;19988;-85
2022/04/30 01:05:47;;;;;;;3.85;2.13;;;;;;;;;;2585247;23;20046;-86
2022/04/30 01:07:02;;;;;;;1.58;1.48;;;;;;;;;;2573586;23;20003;-85
2022/04/30 01:08:08;;;;;;;4.68;1.90;;;;;;;;;;2573363;23;19997;-86
2022/04/30 01:09:08;;;;;;;2.63;1.77;;;;;;;;;;2581266;23;20035;-86
2022/04/30 01:10:09;;;;;;;2.95;1.75;;;;;;;;;;2585719;23;20000;-86
2022/04/30 01:11:10;;;;;;;2.42;1.77;;;;;;;;;;2568895;23;19997;-86
2022/04/30 01:12:13;;;;;;;3.65;1.77;;;;;;;;;;2556494;23;20004;-86
2022/04/30 01:13:14;;;;;;;2.97;2.25;;;;;;;;;;2569576;23;20000;-85
2022/04/30 01:14:16;;;;;;;3.42;2.25;;;;;;;;;;2585686;23;19996;-86
2022/04/30 01:15:18;;;;;;;3.67;2.08;;;;;;;;;;2573780;23;20001;-86
2022/04/30 01:16:18;;;;;;;3.67;2.53;;;;;;;;;;2581150;23;20027;-87
2022/04/30 01:17:20;;;;;;;3.90;3.38;;;;;;;;;;2585668;23;20427;-86
2022/04/30 01:18:21;;;;;;;7.57;5.43;;;;;;;;;;2568733;23;20000;-86
2022/04/30 01:19:22;;;;;;;8.60;6.32;;;;;;;;;;2573012;23;20363;-86
2022/04/30 01:20:24;;;;;;;12.95;8.13;;;;;;;;;;2573791;23;20030;-86
2022/04/30 01:21:28;;;;;;;14.05;8.95;;;;;;;;;;2568767;23;20007;-86
2022/04/30 01:22:35;;;;;;;13.95;9.25;;;;;;;;;;2569545;23;19996;-87
2022/04/30 01:23:36;;;;;;;12.52;8.50;;;;;;;;;;2584674;23;20002;-87
2022/04/30 01:24:40;;;;;;;11.73;7.68;;;;;;;;;;2573796;23;19992;-86
2022/04/30 01:25:43;;;;;;;12.43;7.65;;;;;;;;;;2573409;23;19989;-86
2022/04/30 01:26:48;;;;;;;10.52;7.65;;;;;;;;;;2573771;23;19992;-86
2022/04/30 01:27:50;;;;;;;8.93;6.38;;;;;;;;;;2581226;23;20153;-87
2022/04/30 01:28:51;;;;;;;5.95;3.88;;;;;;;;;;2585549;23;19996;-86
2022/04/30 01:29:51;;;;;;;5.03;3.85;;;;;;;;;;2581008;23;20087;-86
2022/04/30 01:30:52;;;;;;;4.75;2.65;;;;;;;;;;2581649;23;20016;-86
2022/04/30 01:37:23;;;;;;;1.75;1.42;;;;;;;;;;2574550;23;19996;-88
2022/04/30 01:38:23;;;;;;;3.70;1.98;;;;;;;;;;2581820;23;20062;-87
2022/04/30 01:39:26;;;;;;;2.95;2.13;;;;;;;;;;2586377;23;20321;-86
2022/04/30 01:40:27;;;;;;;4.53;2.22;;;;;;;;;;2574378;23;19993;-86
2022/04/30 01:41:27;;;;;;;4.63;1.98;;;;;;;;;;2574153;23;20444;-86
2022/04/30 01:42:30;;;;;;;3.20;2.13;;;;;;;;;;2574358;23;20388;-87
2022/04/30 01:43:33;;;;;;;4.07;1.77;;;;;;;;;;2574243;23;20007;-87
2022/04/30 01:44:34;;;;;;;5.47;1.70;;;;;;;;;;2574396;23;20046;-86
2022/04/30 01:45:35;;;;;;;2.00;1.83;;;;;;;;;;2571320;23;19992;-87
2022/04/30 01:46:37;;;;;;;3.00;2.08;;;;;;;;;;2574138;23;20420;-87
2022/04/30 01:47:41;;;;;;;2.17;1.70;;;;;;;;;;2574113;23;19988;-86
2022/04/30 01:48:42;;;;;;;3.88;1.95;;;;;;;;;;2574323;23;20007;-85
2022/04/30 01:49:43;;;;;;;3.67;2.08;;;;;;;;;;2581911;23;20470;-85
2022/04/30 01:50:43;;;;;;;4.28;2.05;;;;;;;;;;2586182;23;19995;-86
2022/04/30 01:51:49;;;;;;;2.70;2.50;;;;;;;;;;2582295;23;19988;-86
2022/04/30 01:52:50;;;;;;;3.25;2.30;;;;;;;;;;2569511;23;20000;-86
2022/04/30 01:53:50;;;;;;;2.85;2.17;;;;;;;;;;2573780;23;20408;-86
2022/04/30 01:54:50;;;;;;;3.35;2.20;;;;;;;;;;2574203;23;20404;-86
2022/04/30 01:55:51;;;;;;;3.92;1.92;;;;;;;;;;2574216;23;20431;-86
2022/04/30 01:56:51;;;;;;;3.83;2.28;;;;;;;;;;2570370;23;20012;-86
2022/04/30 01:57:52;;;;;;;2.85;2.03;;;;;;;;;;2574162;23;19997;-87
2022/04/30 01:58:52;;;;;;;2.15;1.65;;;;;;;;;;2569502;23;20031;-86
2022/04/30 01:59:57;;;;;;;3.55;1.80;;;;;;;;;;2574007;23;20024;-86
2022/04/30 02:00:58;;;;;;;3.80;2.22;;;;;;;;;;2569621;23;20450;-85
2022/04/30 02:01:59;;;;;;;4.10;1.85;;;;;;;;;;2573787;23;19996;-86
2022/04/30 02:03:08;;;;;;;3.20;1.83;;;;;;;;;;2581952;23;20000;-86
2022/04/30 02:04:08;;;;;;;2.38;2.05;;;;;;;;;;2569307;23;20504;-88
2022/04/30 02:05:09;;;;;;;4.10;2.33;;;;;;;;;;2569122;23;20063;-87
2022/04/30 02:06:12;;;;;;;2.25;1.90;;;;;;;;;;2569179;23;20317;-85
2022/04/30 02:07:13;;;;;;;2.85;2.33;;;;;;;;;;2561227;23;20154;-85
2022/04/30 02:08:17;;;;;;;5.47;2.40;;;;;;;;;;2572531;23;20535;-85
2022/04/30 02:09:18;;;;;;;3.17;2.08;;;;;;;;;;2575907;23;20236;-87
2022/04/30 02:10:20;;;;;;;4.20;2.88;;;;;;;;;;2558227;23;20453;-87
2022/04/30 02:11:22;;;;;;;3.28;2.25;;;;;;;;;;2557585;23;20397;-88
2022/04/30 02:12:31;;;;;;;2.60;1.88;;;;;;;;;;2569623;23;19993;-86
2022/04/30 02:13:34;;;;;;;2.72;1.80;;;;;;;;;;2569528;23;20442;-86
2022/04/30 02:14:38;;;;;;;2.65;1.77;;;;;;;;;;2573768;23;20055;-85
2022/04/30 02:15:40;;;;;;;3.08;2.00;;;;;;;;;;2557116;23;20012;-85
2022/04/30 02:16:42;;;;;;;4.00;2.05;;;;;;;;;;2557382;23;19989;-87
2022/04/30 02:17:46;;;;;;;4.95;2.47;;;;;;;;;;2556988;23;20475;-88
2022/04/30 02:18:49;;;;;;;3.70;1.80;;;;;;;;;;2569526;23;20001;-86
2022/04/30 02:21:11;;;;;;;3.15;2.13;;;;;;;;;;2574310;23;20000;-87
2022/04/30 02:22:12;;;;;;;3.63;2.38;;;;;;;;;;2574072;23;20408;-87
2022/04/30 02:23:16;;;;;;;2.80;1.90;;;;;;;;;;2574264;23;19993;-86
2022/04/30 02:24:17;;;;;;;2.75;1.92;;;;;;;;;;2574230;23;20054;-87
2022/04/30 02:25:19;;;;;;;3.15;2.45;;;;;;;;;;2570954;23;20005;-87
2022/04/30 02:26:20;;;;;;;4.68;2.63;;;;;;;;;;2556941;23;20013;-87
2022/04/30 02:27:22;;;;;;;2.28;1.80;;;;;;;;;;2561158;23;20000;-87
2022/04/30 02:28:23;;;;;;;5.22;2.13;;;;;;;;;;2556868;23;19996;-87
2022/04/30 02:29:24;;;;;;;3.05;2.15;;;;;;;;;;2557006;23;20076;-86
2022/04/30 02:30:28;;;;;;;3.53;1.83;;;;;;;;;;2573668;23;19992;-87
2022/04/30 02:31:29;;;;;;;3.88;2.72;;;;;;;;;;2574202;23;20428;-87
2022/04/30 02:32:43;;;;;;;3.50;1.90;;;;;;;;;;2557022;23;19993;-86
2022/04/30 02:33:46;;;;;;;7.43;2.63;;;;;;;;;;2559864;23;19989;-86
2022/04/30 02:34:49;;;;;;;6.80;2.58;;;;;;;;;;2556966;23;20396;-86
2022/04/30 02:35:50;;;;;;;4.47;2.88;;;;;;;;;;2561741;23;20033;-86
2022/04/30 02:36:50;;;;;;;3.45;2.67;;;;;;;;;;2569221;23;20027;-87
2022/04/30 02:37:54;;;;;;;3.70;2.33;;;;;;;;;;2573511;23;20328;-87
2022/04/30 02:38:55;;;;;;;4.32;2.10;;;;;;;;;;2574110;23;20071;-86
2022/04/30 02:39:56;;;;;;;4.05;2.63;;;;;;;;;;2569551;23;20340;-85
2022/04/30 02:40:56;;;;;;;4.30;2.30;;;;;;;;;;2560767;23;19993;-86
2022/04/30 02:41:57;;;;;;;5.57;2.80;;;;;;;;;;2564169;23;19993;-84
2022/04/30 02:43:15;;;;;;;3.72;2.72;;;;;;;;;;2563735;23;19997;-85
2022/04/30 02:44:16;;;;;;;4.18;2.70;;;;;;;;;;2573994;23;19997;-85
2022/04/30 02:45:18;;;;;;;6.43;3.00;;;;;;;;;;2580352;23;19993;-86
2022/04/30 02:46:20;;;;;;;2.95;2.42;;;;;;;;;;2562779;23;20009;-86
2022/04/30 02:47:20;;;;;;;4.10;2.72;;;;;;;;;;2562455;23;19993;-84
2022/04/30 02:48:21;;;;;;;5.55;2.75;;;;;;;;;;2569653;23;20312;-87
2022/04/30 02:49:24;;;;;;;10.52;3.17;;;;;;;;;;2573651;23;20578;-86
2022/04/30 02:50:25;;;;;;;6.20;2.78;;;;;;;;;;2557086;23;19993;-86
2022/04/30 02:51:26;;;;;;;5.35;2.70;;;;;;;;;;2544638;23;19994;-87
2022/04/30 02:52:26;;;;;;;5.57;2.80;;;;;;;;;;2561151;23;20028;-86
2022/04/30 02:53:26;;;;;;;5.60;2.17;;;;;;;;;;2569245;23;20333;-88
2022/04/30 02:54:27;;;;;;;4.03;3.08;;;;;;;;;;2573666;23;20039;-87
2022/04/30 02:55:27;;;;;;;4.07;2.53;;;;;;;;;;2557230;23;20083;-86
2022/04/30 02:56:28;;;;;;;3.65;2.95;;;;;;;;;;2562076;23;19988;-87
2022/04/30 03:00:45;;;;;;;4.43;2.60;;;;;;;;;;2574166;23;19993;-87
2022/04/30 03:01:53;;;;;;;4.47;3.15;;;;;;;;;;2569297;23;20035;-86
2022/04/30 03:02:55;;;;;;;4.30;2.53;;;;;;;;;;2561040;23;20421;-85
2022/04/30 03:03:58;;;;;;;4.88;3.03;;;;;;;;;;2557219;23;19997;-86
2022/04/30 03:05:01;;;;;;;4.28;2.60;;;;;;;;;;2580894;23;20024;-86
2022/04/30 03:06:01;;;;;;;3.65;2.45;;;;;;;;;;2586439;23;20057;-86
2022/04/30 03:07:03;;;;;;;5.97;3.10;;;;;;;;;;2586488;23;20050;-87
2022/04/30 03:08:12;;;;;;;4.82;2.55;;;;;;;;;;2569377;23;20334;-86
2022/04/30 03:09:13;;;;;;;2.67;1.85;;;;;;;;;;2558611;23;19997;-86
2022/04/30 03:10:14;;;;;;;4.95;2.83;;;;;;;;;;2573328;23;20000;-86
2022/04/30 03:11:14;;;;;;;3.83;2.88;;;;;;;;;;2586500;23;19992;-86
2022/04/30 03:12:18;;;;;;;4.57;3.20;;;;;;;;;;2581699;23;20458;-86
2022/04/30 03:13:22;;;;;;;4.20;3.10;;;;;;;;;;2569234;23;20028;-86
2022/04/30 03:14:25;;;;;;;5.03;3.65;;;;;;;;;;2569852;23;19996;-86
2022/04/30 03:15:30;;;;;;;3.90;2.85;;;;;;;;;;2581764;23;19991;-86
2022/04/30 03:21:47;;;;;;;4.88;3.40;;;;;;;;;;2586474;23;20004;-86
2022/04/30 03:22:49;;;;;;;5.45;3.13;;;;;;;;;;2581704;23;19996;-86
2022/04/30 03:24:01;;;;;;;4.63;3.58;;;;;;;;;;2585908;23;20319;-86
2022/04/30 03:25:02;;;;;;;5.88;3.70;;;;;;;;;;2586540;23;20411;-86
2022/04/30 03:26:08;;;;;;;4.72;3.55;;;;;;;;;;2586395;23;19992;-86
2022/04/30 03:27:12;;;;;;;5.20;3.30;;;;;;;;;;2581058;23;20083;-87
2022/04/30 03:28:18;;;;;;;7.32;4.28;;;;;;;;;;2575683;23;20431;-86
2022/04/30 03:29:19;;;;;;;6.38;3.65;;;;;;;;;;2563522;23;20056;-85
2022/04/30 03:30:20;;;;;;;7.25;3.55;;;;;;;;;;2578607;23;19996;-85
2022/04/30 03:31:22;;;;;;;4.65;3.20;;;;;;;;;;2589356;23;20048;-86
2022/04/30 03:32:25;;;;;;;6.30;3.90;;;;;;;;;;2585513;23;19996;-86
2022/04/30 03:33:28;;;;;;;5.00;3.53;;;;;;;;;;2582888;23;19992;-86
2022/04/30 03:34:32;;;;;;;6.43;3.50;;;;;;;;;;2581593;23;19999;-85
2022/04/30 03:35:33;;;;;;;4.15;3.40;;;;;;;;;;2586302;23;19992;-86
2022/04/30 03:36:42;;;;;;;4.60;3.33;;;;;;;;;;2586692;23;20039;-86
2022/04/30 03:37:43;;;;;;;6.95;3.85;;;;;;;;;;2569023;23;20000;-85
2022/04/30 03:38:44;;;;;;;5.45;3.33;;;;;;;;;;2569026;23;20016;-85
2022/04/30 03:39:44;;;;;;;4.32;3.90;;;;;;;;;;2585799;23;20003;-85
2022/04/30 03:40:44;;;;;;;5.10;4.35;;;;;;;;;;2586538;23;19996;-85
2022/04/30 03:41:45;;;;;;;6.47;4.00;;;;;;;;;;2581519;23;20038;-84
2022/04/30 03:42:48;;;;;;;4.50;3.63;;;;;;;;;;2581977;23;20419;-85
2022/04/30 03:43:49;;;;;;;6.03;3.25;;;;;;;;;;2569283;23;20005;-85
2022/04/30 03:44:57;;;;;;;5.13;3.78;;;;;;;;;;2573411;23;20420;-85
2022/04/30 03:46:05;;;;;;;4.97;3.88;;;;;;;;;;2586402;23;20420;-85
2022/04/30 03:47:05;;;;;;;4.82;3.40;;;;;;;;;;2581672;23;20531;-85
2022/04/30 03:48:06;;;;;;;6.07;3.92;;;;;;;;;;2581551;23;20063;-85
2022/04/30 03:49:17;;;;;;;7.68;4.15;;;;;;;;;;2569035;23;20075;-85
2022/04/30 03:50:27;;;;;;;5.07;4.13;;;;;;;;;;2585968;23;19992;-85
2022/04/30 03:51:28;;;;;;;5.90;3.50;;;;;;;;;;2573244;23;20399;-84
2022/04/30 03:52:33;;;;;;;8.80;4.30;;;;;;;;;;2556550;23;20007;-85
2022/04/30 03:53:44;;;;;;;5.47;3.58;;;;;;;;;;2574295;23;20004;-85
2022/04/30 03:54:49;;;;;;;7.35;4.20;;;;;;;;;;2586013;23;20049;-85
2022/04/30 03:55:59;;;;;;;;;;;;;;;;;;;;;
2022/04/30 03:57:06;;;;;;;6.50;4.38;;;;;;;;;;2586315;23;20082;-84
2022/04/30 03:58:08;;;;;;;7.45;4.00;;;;;;;;;;2581398;23;19992;-85
2022/04/30 03:59:09;;;;;;;6.25;4.13;;;;;;;;;;2585866;23;20042;-85
2022/04/30 04:00:22;;;;;;;4.53;3.75;;;;;;;;;;2586196;23;20419;-85
2022/04/30 04:01:25;;;;;;;7.95;3.97;;;;;;;;;;2586421;23;20019;-85
2022/04/30 04:02:29;;;;;;;5.72;4.05;;;;;;;;;;2586444;23;20336;-85
2022/04/30 04:03:43;;;;;;;;;;;;;;;;;;;;;
2022/04/30 04:04:56;;;;;;;6.13;4.03;;;;;;;;;;2575889;23;19989;-85
2022/04/30 04:06:03;;;;;;;5.95;4.00;;;;;;;;;;2585799;23;20008;-85
2022/04/30 04:07:15;;;;;;;4.65;3.53;;;;;;;;;;2584474;23;20285;-85
2022/04/30 04:08:20;;;;;;;6.28;4.07;;;;;;;;;;2576071;23;20044;-86
2022/04/30 04:09:42;;;;;;;8.00;3.90;;;;;;;;;;2585729;23;20011;-86
2022/04/30 04:10:42;;;;;;;7.32;4.32;;;;;;;;;;2581385;23;19999;-86
2022/04/30 04:11:52;;;;;;;9.93;4.07;;;;;;;;;;2581573;23;20317;-85
2022/04/30 04:18:16;;;;;;;4.75;3.55;;;;;;;;;;2586355;23;20000;-86
2022/04/30 04:19:40;;;;;;;4.25;3.47;;;;;;;;;;2586875;23;19992;-86
2022/04/30 04:20:44;;;;;;;6.55;3.80;;;;;;;;;;2586368;23;20062;-85
2022/04/30 04:21:53;;;;;;;6.03;3.55;;;;;;;;;;2586657;23;19996;-85
2022/04/30 04:22:59;;;;;;;6.82;4.00;;;;;;;;;;2573199;23;20056;-85
2022/04/30 04:26:48;;;;;;;5.65;3.60;;;;;;;;;;2586451;23;20447;-85
2022/04/30 04:27:54;;;;;;;6.15;3.20;;;;;;;;;;2586602;23;19996;-85
2022/04/30 04:28:56;;;;;;;5.10;3.28;;;;;;;;;;2581932;23;20411;-86
2022/04/30 04:29:57;;;;;;;5.75;3.53;;;;;;;;;;2585719;23;20311;-85
2022/04/30 04:30:59;;;;;;;5.35;3.28;;;;;;;;;;2569357;23;20075;-86
2022/04/30 04:32:02;;;;;;;4.50;3.33;;;;;;;;;;2573497;23;20004;-84
2022/04/30 04:33:02;;;;;;;5.63;3.35;;;;;;;;;;2569089;23;20000;-85
2022/04/30 04:34:05;;;;;;;5.30;3.90;;;;;;;;;;2573098;23;20481;-85
2022/04/30 04:35:09;;;;;;;5.68;3.33;;;;;;;;;;2581399;23;20427;-86
2022/04/30 04:36:11;;;;;;;6.53;3.85;;;;;;;;;;2585769;23;20251;-86
2022/04/30 04:37:17;;;;;;;4.93;2.53;;;;;;;;;;2581635;23;20050;-86
2022/04/30 04:38:31;;;;;;;4.65;3.17;;;;;;;;;;2581345;23;19996;-85
2022/04/30 04:39:34;;;;;;;6.32;3.05;;;;;;;;;;2586104;23;20020;-87
2022/04/30 04:40:35;;;;;;;5.20;3.13;;;;;;;;;;2569185;23;20008;-85
2022/04/30 04:41:38;;;;;;;4.40;3.05;;;;;;;;;;2556604;23;20017;-86
2022/04/30 04:42:56;;;;;;;4.63;3.45;;;;;;;;;;2557075;23;19997;-86
2022/04/30 04:44:12;;;;;;;4.22;2.97;;;;;;;;;;2576743;23;19993;-86
2022/04/30 04:45:15;;;;;;;6.20;3.40;;;;;;;;;;2586429;23;20000;-86
2022/04/30 04:46:21;;;;;;;6.63;4.18;;;;;;;;;;2569686;23;20082;-85
2022/04/30 04:47:22;;;;;;;4.75;3.17;;;;;;;;;;2574204;23;19996;-84
2022/04/30 04:48:23;;;;;;;6.43;3.03;;;;;;;;;;2581347;23;20029;-84
2022/04/30 04:49:23;;;;;;;6.43;4.03;;;;;;;;;;2586564;23;20024;-84
2022/04/30 04:50:31;;;;;;;5.13;3.50;;;;;;;;;;2587119;23;20415;-85
2022/04/30 04:51:40;;;;;;;8.00;3.63;;;;;;;;;;2586308;23;20063;-86
2022/04/30 04:52:41;;;;;;;4.97;3.63;;;;;;;;;;2581294;23;20007;-84
2022/04/30 04:53:44;;;;;;;5.22;3.38;;;;;;;;;;2585884;23;20469;-84
2022/04/30 04:55:09;;;;;;;5.55;3.08;;;;;;;;;;2569115;23;20055;-84
2022/04/30 04:56:19;;;;;;;;;;;;;;;;;;;;;
2022/04/30 04:57:23;;;;;;;7.50;3.63;;;;;;;;;;2579537;23;20000;-84
2022/04/30 04:58:44;;;;;;;4.95;3.42;;;;;;;;;;2586225;23;20419;-84
2022/04/30 04:59:54;;;;;;;;;;;;;;;;;;;;;
2022/04/30 05:00:59;;;;;;;5.25;3.35;;;;;;;;;;2586114;23;19992;-84
2022/04/30 05:02:02;;;;;;;4.95;3.58;;;;;;;;;;2568731;23;20000;-84
2022/04/30 05:03:12;;;;;;;6.10;4.07;;;;;;;;;;2573557;23;20335;-84
2022/04/30 05:04:20;;;;;;;6.82;4.28;;;;;;;;;;2572992;23;20055;-84
2022/04/30 05:05:21;;;;;;;6.57;3.25;;;;;;;;;;2574544;23;20007;-84
2022/04/30 05:06:22;;;;;;;4.60;3.13;;;;;;;;;;2586843;23;20039;-84
2022/04/30 05:07:25;;;;;;;4.85;2.95;;;;;;;;;;2586923;23;20019;-85
2022/04/30 05:08:26;;;;;;;4.82;2.92;;;;;;;;;;2582860;23;20038;-83
2022/04/30 05:09:36;;;;;;;;;;;;;;;;;;;;;
2022/04/30 05:11:05;;;;;;;6.80;2.90;;;;;;;;;;2586861;23;19988;-85
2022/04/30 05:12:12;;;;;;;5.47;3.42;;;;;;;;;;2581919;23;20067;-85
2022/04/30 05:13:18;;;;;;;4.00;3.00;;;;;;;;;;2569526;23;20001;-83
2022/04/30 05:14:23;;;;;;;4.55;2.83;;;;;;;;;;2574959;23;20001;-84
2022/04/30 05:15:27;;;;;;;3.83;2.88;;;;;;;;;;2573596;23;19997;-84
2022/04/30 05:16:43;;;;;;;5.80;2.88;;;;;;;;;;2574462;23;19996;-84
2022/04/30 05:17:46;;;;;;;7.00;3.45;;;;;;;;;;2587201;23;20071;-84
2022/04/30 05:18:47;;;;;;;5.38;3.17;;;;;;;;;;2586868;23;20050;-83
2022/04/30 05:19:49;;;;;;;6.90;3.55;;;;;;;;;;2582201;23;20000;-83
2022/04/30 05:20:50;;;;;;;6.43;3.67;;;;;;;;;;2582087;23;20006;-83
2022/04/30 05:21:51;;;;;;;5.10;3.60;;;;;;;;;;2586370;23;20312;-83
2022/04/30 05:22:54;;;;;;;7.45;3.33;;;;;;;;;;2569539;23;20005;-83
2022/04/30 05:24:02;;;;;;;10.55;3.88;;;;;;;;;;2570186;23;20427;-85
2022/04/30 05:25:10;;;;;;;5.95;3.38;;;;;;;;;;2586387;23;20075;-86
2022/04/30 05:26:10;;;;;;;4.63;3.50;;;;;;;;;;2586862;23;20000;-84
2022/04/30 05:27:11;;;;;;;8.82;3.35;;;;;;;;;;2569653;23;20485;-84
2022/04/30 05:28:16;;;;;;;7.57;4.43;;;;;;;;;;2581876;23;20000;-85
2022/04/30 05:29:28;;;;;;;4.20;3.33;;;;;;;;;;2582063;23;20388;-84
2022/04/30 05:30:38;;;;;;;6.53;3.95;;;;;;;;;;2586555;23;20402;-84
2022/04/30 05:31:41;;;;;;;4.38;3.53;;;;;;;;;;2587020;23;20315;-84
2022/04/30 05:32:43;;;;;;;6.35;3.90;;;;;;;;;;2586822;23;20003;-84
2022/04/30 05:33:43;;;;;;;6.10;3.75;;;;;;;;;;2585388;23;20067;-85
2022/04/30 05:34:54;;;;;;;;;;;;;;;;;;;;;
2022/04/30 05:35:59;;;;;;;7.07;3.60;;;;;;;;;;2575970;23;20008;-85
2022/04/30 05:37:07;;;;;;;5.65;3.28;;;;;;;;;;2586944;23;20007;-85
2022/04/30 05:38:15;;;;;;;5.57;3.35;;;;;;;;;;2585486;23;20008;-84
2022/04/30 05:39:18;;;;;;;6.40;3.00;;;;;;;;;;2586141;23;19996;-84
2022/04/30 05:40:19;;;;;;;7.75;3.58;;;;;;;;;;2586085;23;20016;-85
2022/04/30 05:41:30;;;;;;;7.22;3.50;;;;;;;;;;2582046;23;20038;-85
2022/04/30 05:42:35;;;;;;;4.15;3.63;;;;;;;;;;2586673;23;20019;-86
2022/04/30 05:43:49;;;;;;;4.93;3.10;;;;;;;;;;2586219;23;19992;-85
2022/04/30 05:45:12;;;;;;;4.00;2.97;;;;;;;;;;2586524;23;20081;-84
2022/04/30 05:46:21;;;;;;;5.13;3.28;;;;;;;;;;2586751;23;20062;-86
2022/04/30 05:47:27;;;;;;;6.55;3.53;;;;;;;;;;2586957;23;20086;-85
2022/04/30 05:48:35;;;;;;;8.07;3.90;;;;;;;;;;2586627;23;19988;-84
2022/04/30 05:49:44;;;;;;;6.00;3.10;;;;;;;;;;2586803;23;19992;-84
2022/04/30 05:51:07;;;;;;;5.50;3.53;;;;;;;;;;2573842;23;20436;-84
2022/04/30 05:52:08;;;;;;;5.00;3.35;;;;;;;;;;2574044;23;20000;-84
2022/04/30 05:53:37;;;;;;;5.05;3.38;;;;;;;;;;2586236;23;19998;-84
2022/04/30 05:54:42;;;;;;;6.00;2.88;;;;;;;;;;2586963;23;19992;-84
2022/04/30 05:55:53;;;;;;;;;;;;;;;;;;;;;
2022/04/30 05:56:59;;;;;;;6.05;3.80;;;;;;;;;;2575704;23;19988;-83
2022/04/30 05:58:19;;;;;;;6.07;3.63;;;;;;;;;;2586690;23;19999;-83
2022/04/30 05:59:22;;;;;;;6.97;3.63;;;;;;;;;;2586795;23;19996;-84
2022/04/30 06:00:25;;;;;;;7.55;3.75;;;;;;;;;;2569522;23;20383;-83
2022/04/30 06:01:28;;;;;;;5.93;3.35;;;;;;;;;;2557668;23;19993;-83
2022/04/30 06:02:32;;;;;;;5.13;3.22;;;;;;;;;;2569669;23;19993;-83
2022/04/30 06:03:39;;;;;;;7.15;3.83;;;;;;;;;;2569352;23;20307;-84
2022/04/30 06:04:43;;;;;;;6.43;3.30;;;;;;;;;;2574923;23;20000;-84
2022/04/30 06:05:53;;;;;;;4.78;3.15;;;;;;;;;;2586518;23;20012;-84
2022/04/30 06:06:58;;;;;;;4.07;3.25;;;;;;;;;;2586649;23;20000;-83
2022/04/30 06:08:07;;;;;;;4.28;3.03;;;;;;;;;;2586846;23;20024;-84
2022/04/30 06:09:35;;;;;;;;;;;;;;;;;;;;;
2022/04/30 06:10:53;;;;;;;6.65;3.25;;;;;;;;;;2586470;23;20061;-84
2022/04/30 06:12:14;;;;;;;4.88;3.63;;;;;;;;;;2586270;23;20011;-85
2022/04/30 06:14:45;;;;;;;7.68;3.53;;;;;;;;;;2582731;23;19992;-84
2022/04/30 06:16:06;;;;;;;5.45;3.75;;;;;;;;;;2569441;23;20092;-84
2022/04/30 06:17:09;;;;;;;6.22;3.55;;;;;;;;;;2572887;23;19998;-84
2022/04/30 06:18:15;;;;;;;4.68;3.60;;;;;;;;;;2585998;23;20003;-85
2022/04/30 06:19:22;;;;;;;5.05;3.40;;;;;;;;;;2586742;23;20456;-85
2022/04/30 06:20:32;;;;;;;6.68;3.63;;;;;;;;;;2586644;23;19996;-85
2022/04/30 06:21:45;;;;;;;;;;;;;;;;;;;;;
2022/04/30 06:22:46;;;;;;;5.55;3.83;;;;;;;;;;2571581;23;20359;-85
2022/04/30 06:23:48;;;;;;;6.00;3.33;;;;;;;;;;2581981;23;19992;-85
2022/04/30 06:24:49;;;;;;;5.32;3.42;;;;;;;;;;2569364;23;20007;-86
2022/04/30 06:25:52;;;;;;;4.43;3.58;;;;;;;;;;2573594;23;20481;-85
2022/04/30 06:26:52;;;;;;;4.80;3.58;;;;;;;;;;2586494;23;20000;-85
2022/04/30 06:28:03;;;;;;;3.35;3.05;;;;;;;;;;2586549;23;20308;-85
2022/04/30 06:29:23;;;;;;;;;;;;;;;;;;;;;
2022/04/30 06:30:26;;;;;;;5.70;3.90;;;;;;;;;;2586508;23;20003;-85
2022/04/30 06:31:28;;;;;;;6.40;3.92;;;;;;;;;;2586646;23;19988;-85
2022/04/30 06:32:32;;;;;;;6.43;3.67;;;;;;;;;;2586770;23;20134;-85
2022/04/30 06:33:53;;;;;;;4.43;3.30;;;;;;;;;;2569238;23;20047;-84
2022/04/30 06:34:59;;;;;;;4.72;2.83;;;;;;;;;;2573417;23;20075;-85
2022/04/30 06:36:02;;;;;;;5.38;3.17;;;;;;;;;;2586167;23;20347;-84
2022/04/30 06:37:02;;;;;;;3.83;3.00;;;;;;;;;;2586824;23;20311;-85
2022/04/30 06:38:27;;;;;;;8.13;3.55;;;;;;;;;;2587170;23;19992;-85
2022/04/30 06:39:42;;;;;;;;;;;;;;;;;;;;;
2022/04/30 06:40:48;;;;;;;3.72;2.67;;;;;;;;;;2586188;23;19991;-84
2022/04/30 06:41:52;;;;;;;5.00;2.65;;;;;;;;;;2586897;23;19996;-83
2022/04/30 06:42:53;;;;;;;4.50;2.67;;;;;;;;;;2581842;23;20004;-85
2022/04/30 06:44:07;;;;;;;3.38;3.05;;;;;;;;;;2569244;23;20347;-86
2022/04/30 06:45:12;;;;;;;4.65;3.10;;;;;;;;;;2576651;23;20375;-84
2022/04/30 06:46:17;;;;;;;3.42;2.67;;;;;;;;;;2569007;23;20014;-84
2022/04/30 06:47:30;;;;;;;;;;;;;;;;;;;;;
2022/04/30 06:48:44;;;;;;;4.45;2.63;;;;;;;;;;2586010;23;19999;-85
2022/04/30 06:49:50;;;;;;;4.70;3.47;;;;;;;;;;2586571;23;20480;-84
2022/04/30 06:51:11;;;;;;;4.50;2.80;;;;;;;;;;2569496;23;20004;-85
2022/04/30 06:52:28;;;;;;;4.00;2.85;;;;;;;;;;2577823;23;19992;-86
2022/04/30 06:57:36;;;;;;;10.05;3.60;;;;;;;;;;2586690;23;19996;-86
2022/04/30 06:58:53;;;;;;;4.15;2.78;;;;;;;;;;2586423;23;19996;-85
2022/04/30 07:02:32;;;;;;;4.47;3.40;;;;;;;;;;2581401;23;20072;-86
2022/04/30 07:03:37;;;;;;;6.60;3.55;;;;;;;;;;2586634;23;19996;-84
2022/04/30 07:04:39;;;;;;;7.53;3.60;;;;;;;;;;2586722;23;20067;-84
2022/04/30 07:05:42;;;;;;;6.95;3.88;;;;;;;;;;2586421;23;20075;-85